sensor_id;sensor_type;location;lat;lon;timestamp;P1;durP1;ratioP1;P2;durP2;ratioP2
27003;SDS011;14546;47.590;19.022;2023-09-19T00:02:16;20.95;;;7.05;;
27003;SDS011;14546;47.590;19.022;2023-09-19T00:04:44;20.70;;;6.63;;
27003;SDS011;14546;47.590;19.022;2023-09-19T00:07:10;13.30;;;6.57;;
27003;SDS011;14546;47.590;19.022;2023-09-19T00:09:36;15.05;;;6.60;;
27003;SDS011;14546;47.590;19.022;2023-09-19T00:12:05;19.20;;;6.90;;
27003;SDS011;14546;47.590;19.022;2023-09-19T00:14:31;15.80;;;6.15;;
27003;SDS011;14546;47.590;19.022;2023-09-19T00:17:00;20.20;;;7.38;;
27003;SDS011;14546;47.590;19.022;2023-09-19T00:19:32;18.05;;;6.78;;
27003;SDS011;14546;47.590;19.022;2023-09-19T00:21:58;11.57;;;7.07;;
27003;SDS011;14546;47.590;19.022;2023-09-19T00:24:24;12.82;;;6.57;;
27003;SDS011;14546;47.590;19.022;2023-09-19T00:26:50;25.65;;;6.95;;
27003;SDS011;14546;47.590;19.022;2023-09-19T00:29:16;9.88;;;6.82;;
27003;SDS011;14546;47.590;19.022;2023-09-19T00:31:45;11.07;;;6.25;;
27003;SDS011;14546;47.590;19.022;2023-09-19T00:34:11;12.27;;;6.93;;
27003;SDS011;14546;47.590;19.022;2023-09-19T00:36:37;18.88;;;7.30;;
27003;SDS011;14546;47.590;19.022;2023-09-19T00:39:04;13.35;;;7.43;;
27003;SDS011;14546;47.590;19.022;2023-09-19T00:41:33;12.90;;;6.68;;
27003;SDS011;14546;47.590;19.022;2023-09-19T00:44:01;11.93;;;6.82;;
27003;SDS011;14546;47.590;19.022;2023-09-19T00:46:30;17.95;;;7.95;;
27003;SDS011;14546;47.590;19.022;2023-09-19T00:48:57;19.48;;;7.88;;
27003;SDS011;14546;47.590;19.022;2023-09-19T00:51:24;15.18;;;7.60;;
27003;SDS011;14546;47.590;19.022;2023-09-19T00:53:52;18.77;;;8.15;;
27003;SDS011;14546;47.590;19.022;2023-09-19T00:56:19;12.52;;;6.68;;
27003;SDS011;14546;47.590;19.022;2023-09-19T00:58:45;23.13;;;8.00;;
27003;SDS011;14546;47.590;19.022;2023-09-19T01:01:12;12.52;;;7.45;;
27003;SDS011;14546;47.590;19.022;2023-09-19T01:03:40;16.75;;;7.45;;
27003;SDS011;14546;47.590;19.022;2023-09-19T01:06:07;16.58;;;8.55;;
27003;SDS011;14546;47.590;19.022;2023-09-19T01:08:33;28.35;;;8.20;;
27003;SDS011;14546;47.590;19.022;2023-09-19T01:11:20;20.00;;;8.60;;
27003;SDS011;14546;47.590;19.022;2023-09-19T01:13:58;25.20;;;8.80;;
27003;SDS011;14546;47.590;19.022;2023-09-19T01:16:40;15.50;;;8.50;;
27003;SDS011;14546;47.590;19.022;2023-09-19T01:22:14;20.60;;;8.77;;
27003;SDS011;14546;47.590;19.022;2023-09-19T01:30:21;24.48;;;9.27;;
27003;SDS011;14546;47.590;19.022;2023-09-19T01:32:52;20.23;;;7.82;;
27003;SDS011;14546;47.590;19.022;2023-09-19T01:35:19;18.58;;;8.43;;
27003;SDS011;14546;47.590;19.022;2023-09-19T01:37:44;17.58;;;8.45;;
27003;SDS011;14546;47.590;19.022;2023-09-19T01:40:14;24.05;;;8.85;;
27003;SDS011;14546;47.590;19.022;2023-09-19T01:48:40;14.25;;;8.57;;
27003;SDS011;14546;47.590;19.022;2023-09-19T01:51:14;20.35;;;8.77;;
27003;SDS011;14546;47.590;19.022;2023-09-19T01:56:34;26.88;;;8.85;;
27003;SDS011;14546;47.590;19.022;2023-09-19T01:59:08;17.20;;;8.45;;
27003;SDS011;14546;47.590;19.022;2023-09-19T02:01:38;19.75;;;9.52;;
27003;SDS011;14546;47.590;19.022;2023-09-19T02:04:05;14.85;;;8.13;;
27003;SDS011;14546;47.590;19.022;2023-09-19T02:06:32;19.50;;;8.77;;
27003;SDS011;14546;47.590;19.022;2023-09-19T02:09:01;18.42;;;8.68;;
27003;SDS011;14546;47.590;19.022;2023-09-19T02:11:28;15.55;;;8.80;;
27003;SDS011;14546;47.590;19.022;2023-09-19T02:13:54;23.55;;;9.88;;
27003;SDS011;14546;47.590;19.022;2023-09-19T02:16:20;21.60;;;8.93;;
27003;SDS011;14546;47.590;19.022;2023-09-19T02:18:49;24.08;;;10.02;;
27003;SDS011;14546;47.590;19.022;2023-09-19T02:21:15;17.90;;;9.30;;
27003;SDS011;14546;47.590;19.022;2023-09-19T02:23:42;20.50;;;9.00;;
27003;SDS011;14546;47.590;19.022;2023-09-19T02:26:08;28.70;;;10.13;;
27003;SDS011;14546;47.590;19.022;2023-09-19T02:28:34;17.33;;;9.88;;
27003;SDS011;14546;47.590;19.022;2023-09-19T02:31:00;21.13;;;9.52;;
27003;SDS011;14546;47.590;19.022;2023-09-19T02:33:26;25.45;;;10.05;;
27003;SDS011;14546;47.590;19.022;2023-09-19T02:35:57;14.35;;;9.25;;
27003;SDS011;14546;47.590;19.022;2023-09-19T02:38:27;18.83;;;9.32;;
27003;SDS011;14546;47.590;19.022;2023-09-19T02:40:54;21.63;;;8.98;;
27003;SDS011;14546;47.590;19.022;2023-09-19T02:43:20;17.00;;;9.00;;
27003;SDS011;14546;47.590;19.022;2023-09-19T02:45:49;22.23;;;9.73;;
27003;SDS011;14546;47.590;19.022;2023-09-19T02:48:15;22.00;;;9.15;;
27003;SDS011;14546;47.590;19.022;2023-09-19T02:50:42;21.50;;;9.25;;
27003;SDS011;14546;47.590;19.022;2023-09-19T02:53:08;20.25;;;8.35;;
27003;SDS011;14546;47.590;19.022;2023-09-19T02:55:37;19.40;;;9.05;;
27003;SDS011;14546;47.590;19.022;2023-09-19T02:58:05;19.65;;;9.57;;
27003;SDS011;14546;47.590;19.022;2023-09-19T03:00:33;34.92;;;11.27;;
27003;SDS011;14546;47.590;19.022;2023-09-19T03:03:01;28.35;;;10.15;;
27003;SDS011;14546;47.590;19.022;2023-09-19T03:05:27;19.05;;;9.65;;
27003;SDS011;14546;47.590;19.022;2023-09-19T03:07:56;23.30;;;10.02;;
27003;SDS011;14546;47.590;19.022;2023-09-19T03:10:21;41.88;;;11.13;;
27003;SDS011;14546;47.590;19.022;2023-09-19T03:12:48;32.45;;;12.80;;
27003;SDS011;14546;47.590;19.022;2023-09-19T03:15:14;29.48;;;11.48;;
27003;SDS011;14546;47.590;19.022;2023-09-19T03:17:45;38.55;;;12.80;;
27003;SDS011;14546;47.590;19.022;2023-09-19T03:20:12;40.42;;;11.48;;
27003;SDS011;14546;47.590;19.022;2023-09-19T03:22:42;26.00;;;12.27;;
27003;SDS011;14546;47.590;19.022;2023-09-19T03:25:08;29.45;;;10.68;;
27003;SDS011;14546;47.590;19.022;2023-09-19T03:27:37;25.25;;;11.43;;
27003;SDS011;14546;47.590;19.022;2023-09-19T03:30:03;21.33;;;10.07;;
27003;SDS011;14546;47.590;19.022;2023-09-19T03:32:37;20.38;;;10.18;;
27003;SDS011;14546;47.590;19.022;2023-09-19T03:35:08;22.30;;;10.05;;
27003;SDS011;14546;47.590;19.022;2023-09-19T03:37:39;24.17;;;9.73;;
27003;SDS011;14546;47.590;19.022;2023-09-19T03:40:06;28.05;;;9.93;;
27003;SDS011;14546;47.590;19.022;2023-09-19T03:42:32;21.48;;;9.43;;
27003;SDS011;14546;47.590;19.022;2023-09-19T03:45:01;21.85;;;9.68;;
27003;SDS011;14546;47.590;19.022;2023-09-19T03:47:30;18.58;;;8.98;;
27003;SDS011;14546;47.590;19.022;2023-09-19T03:49:56;19.73;;;8.40;;
27003;SDS011;14546;47.590;19.022;2023-09-19T03:52:22;18.15;;;8.65;;
27003;SDS011;14546;47.590;19.022;2023-09-19T03:54:47;22.50;;;9.15;;
27003;SDS011;14546;47.590;19.022;2023-09-19T03:57:14;24.52;;;9.32;;
27003;SDS011;14546;47.590;19.022;2023-09-19T03:59:42;19.67;;;7.93;;
27003;SDS011;14546;47.590;19.022;2023-09-19T04:02:08;15.88;;;8.85;;
27003;SDS011;14546;47.590;19.022;2023-09-19T04:04:38;20.00;;;8.63;;
27003;SDS011;14546;47.590;19.022;2023-09-19T04:07:03;16.42;;;8.07;;
27003;SDS011;14546;47.590;19.022;2023-09-19T04:09:30;22.00;;;8.95;;
27003;SDS011;14546;47.590;19.022;2023-09-19T04:11:55;20.30;;;8.45;;
27003;SDS011;14546;47.590;19.022;2023-09-19T04:14:21;22.52;;;8.13;;
27003;SDS011;14546;47.590;19.022;2023-09-19T04:16:46;14.55;;;6.68;;
27003;SDS011;14546;47.590;19.022;2023-09-19T04:19:12;10.80;;;5.38;;
27003;SDS011;14546;47.590;19.022;2023-09-19T04:21:39;10.73;;;4.63;;
27003;SDS011;14546;47.590;19.022;2023-09-19T04:24:06;8.25;;;3.67;;
27003;SDS011;14546;47.590;19.022;2023-09-19T04:26:31;8.57;;;3.75;;
27003;SDS011;14546;47.590;19.022;2023-09-19T04:28:58;9.38;;;3.20;;
27003;SDS011;14546;47.590;19.022;2023-09-19T04:31:23;8.43;;;2.83;;
27003;SDS011;14546;47.590;19.022;2023-09-19T04:33:49;11.55;;;2.72;;
27003;SDS011;14546;47.590;19.022;2023-09-19T04:36:15;8.48;;;2.55;;
27003;SDS011;14546;47.590;19.022;2023-09-19T04:38:40;3.50;;;2.00;;
27003;SDS011;14546;47.590;19.022;2023-09-19T04:41:06;5.55;;;2.35;;
27003;SDS011;14546;47.590;19.022;2023-09-19T04:43:32;7.28;;;2.50;;
27003;SDS011;14546;47.590;19.022;2023-09-19T04:45:57;6.28;;;2.50;;
27003;SDS011;14546;47.590;19.022;2023-09-19T04:48:25;3.90;;;2.20;;
27003;SDS011;14546;47.590;19.022;2023-09-19T04:50:51;5.60;;;2.10;;
27003;SDS011;14546;47.590;19.022;2023-09-19T04:53:17;3.65;;;1.60;;
27003;SDS011;14546;47.590;19.022;2023-09-19T04:55:45;7.68;;;1.48;;
27003;SDS011;14546;47.590;19.022;2023-09-19T04:58:14;5.30;;;1.30;;
27003;SDS011;14546;47.590;19.022;2023-09-19T05:00:40;4.20;;;1.30;;
27003;SDS011;14546;47.590;19.022;2023-09-19T05:03:06;7.13;;;1.17;;
27003;SDS011;14546;47.590;19.022;2023-09-19T05:05:33;6.97;;;1.42;;
27003;SDS011;14546;47.590;19.022;2023-09-19T05:07:59;12.07;;;1.20;;
27003;SDS011;14546;47.590;19.022;2023-09-19T05:10:25;2.13;;;1.10;;
27003;SDS011;14546;47.590;19.022;2023-09-19T05:12:55;3.00;;;1.10;;
27003;SDS011;14546;47.590;19.022;2023-09-19T05:15:20;1.98;;;1.17;;
27003;SDS011;14546;47.590;19.022;2023-09-19T05:17:52;4.25;;;1.42;;
27003;SDS011;14546;47.590;19.022;2023-09-19T05:20:20;2.67;;;0.70;;
27003;SDS011;14546;47.590;19.022;2023-09-19T05:23:03;6.45;;;1.20;;
27003;SDS011;14546;47.590;19.022;2023-09-19T05:25:33;3.00;;;1.10;;
27003;SDS011;14546;47.590;19.022;2023-09-19T05:28:02;3.17;;;1.00;;
27003;SDS011;14546;47.590;19.022;2023-09-19T05:30:28;0.60;;;0.60;;
27003;SDS011;14546;47.590;19.022;2023-09-19T05:32:55;2.92;;;1.10;;
27003;SDS011;14546;47.590;19.022;2023-09-19T05:35:22;2.38;;;0.70;;
27003;SDS011;14546;47.590;19.022;2023-09-19T05:37:50;2.50;;;0.80;;
27003;SDS011;14546;47.590;19.022;2023-09-19T05:40:17;0.80;;;0.75;;
27003;SDS011;14546;47.590;19.022;2023-09-19T05:42:43;4.60;;;0.80;;
27003;SDS011;14546;47.590;19.022;2023-09-19T05:45:09;3.90;;;1.08;;
27003;SDS011;14546;47.590;19.022;2023-09-19T05:47:41;1.40;;;0.73;;
27003;SDS011;14546;47.590;19.022;2023-09-19T05:50:09;2.50;;;0.95;;
27003;SDS011;14546;47.590;19.022;2023-09-19T05:52:36;3.50;;;0.63;;
27003;SDS011;14546;47.590;19.022;2023-09-19T05:55:06;5.85;;;0.60;;
27003;SDS011;14546;47.590;19.022;2023-09-19T05:57:35;3.60;;;0.85;;
27003;SDS011;14546;47.590;19.022;2023-09-19T06:00:02;4.32;;;1.00;;
27003;SDS011;14546;47.590;19.022;2023-09-19T06:02:33;1.83;;;0.95;;
27003;SDS011;14546;47.590;19.022;2023-09-19T06:05:00;1.40;;;0.50;;
27003;SDS011;14546;47.590;19.022;2023-09-19T06:07:26;3.38;;;1.00;;
27003;SDS011;14546;47.590;19.022;2023-09-19T06:10:01;6.40;;;1.00;;
27003;SDS011;14546;47.590;19.022;2023-09-19T06:12:28;6.80;;;0.77;;
27003;SDS011;14546;47.590;19.022;2023-09-19T06:14:55;6.60;;;1.65;;
27003;SDS011;14546;47.590;19.022;2023-09-19T06:17:21;3.63;;;0.90;;
27003;SDS011;14546;47.590;19.022;2023-09-19T06:19:47;4.47;;;1.02;;
27003;SDS011;14546;47.590;19.022;2023-09-19T06:22:16;1.58;;;0.93;;
27003;SDS011;14546;47.590;19.022;2023-09-19T06:24:45;1.05;;;0.80;;
27003;SDS011;14546;47.590;19.022;2023-09-19T06:27:12;2.15;;;0.98;;
27003;SDS011;14546;47.590;19.022;2023-09-19T06:29:38;5.22;;;0.82;;
27003;SDS011;14546;47.590;19.022;2023-09-19T06:32:08;3.05;;;1.10;;
27003;SDS011;14546;47.590;19.022;2023-09-19T06:34:35;3.47;;;1.02;;
27003;SDS011;14546;47.590;19.022;2023-09-19T06:37:01;9.77;;;1.98;;
27003;SDS011;14546;47.590;19.022;2023-09-19T06:39:28;1.98;;;0.90;;
27003;SDS011;14546;47.590;19.022;2023-09-19T06:41:54;1.70;;;0.90;;
27003;SDS011;14546;47.590;19.022;2023-09-19T06:44:20;2.38;;;1.15;;
27003;SDS011;14546;47.590;19.022;2023-09-19T06:46:49;1.48;;;0.90;;
27003;SDS011;14546;47.590;19.022;2023-09-19T06:49:16;6.10;;;1.27;;
27003;SDS011;14546;47.590;19.022;2023-09-19T06:51:42;2.28;;;1.13;;
27003;SDS011;14546;47.590;19.022;2023-09-19T06:54:09;2.15;;;1.42;;
27003;SDS011;14546;47.590;19.022;2023-09-19T06:56:35;3.50;;;1.50;;
27003;SDS011;14546;47.590;19.022;2023-09-19T06:59:01;2.58;;;1.40;;
27003;SDS011;14546;47.590;19.022;2023-09-19T07:01:28;4.53;;;1.30;;
27003;SDS011;14546;47.590;19.022;2023-09-19T07:03:54;2.17;;;1.13;;
27003;SDS011;14546;47.590;19.022;2023-09-19T07:06:20;3.78;;;1.25;;
27003;SDS011;14546;47.590;19.022;2023-09-19T07:08:46;3.90;;;1.60;;
27003;SDS011;14546;47.590;19.022;2023-09-19T07:11:13;3.53;;;1.20;;
27003;SDS011;14546;47.590;19.022;2023-09-19T07:13:40;3.17;;;1.35;;
27003;SDS011;14546;47.590;19.022;2023-09-19T07:16:06;1.85;;;1.13;;
27003;SDS011;14546;47.590;19.022;2023-09-19T07:18:35;2.10;;;1.00;;
27003;SDS011;14546;47.590;19.022;2023-09-19T07:21:02;1.92;;;0.93;;
27003;SDS011;14546;47.590;19.022;2023-09-19T07:23:29;2.35;;;0.88;;
27003;SDS011;14546;47.590;19.022;2023-09-19T07:26:00;3.65;;;1.00;;
27003;SDS011;14546;47.590;19.022;2023-09-19T07:28:26;3.95;;;0.98;;
27003;SDS011;14546;47.590;19.022;2023-09-19T07:30:53;4.72;;;1.00;;
27003;SDS011;14546;47.590;19.022;2023-09-19T07:33:19;3.10;;;1.10;;
27003;SDS011;14546;47.590;19.022;2023-09-19T07:35:46;4.57;;;1.08;;
27003;SDS011;14546;47.590;19.022;2023-09-19T07:38:12;2.03;;;1.05;;
27003;SDS011;14546;47.590;19.022;2023-09-19T07:40:38;2.70;;;1.20;;
27003;SDS011;14546;47.590;19.022;2023-09-19T07:43:04;3.03;;;1.30;;
27003;SDS011;14546;47.590;19.022;2023-09-19T07:45:31;2.70;;;0.90;;
27003;SDS011;14546;47.590;19.022;2023-09-19T07:47:57;3.28;;;1.38;;
27003;SDS011;14546;47.590;19.022;2023-09-19T07:50:26;1.00;;;0.90;;
27003;SDS011;14546;47.590;19.022;2023-09-19T07:52:53;3.80;;;1.42;;
27003;SDS011;14546;47.590;19.022;2023-09-19T07:55:21;4.75;;;1.30;;
27003;SDS011;14546;47.590;19.022;2023-09-19T07:57:51;2.45;;;1.33;;
27003;SDS011;14546;47.590;19.022;2023-09-19T08:00:17;6.78;;;1.70;;
27003;SDS011;14546;47.590;19.022;2023-09-19T08:02:44;4.25;;;1.30;;
27003;SDS011;14546;47.590;19.022;2023-09-19T08:05:11;4.88;;;1.48;;
27003;SDS011;14546;47.590;19.022;2023-09-19T08:07:40;1.67;;;1.33;;
27003;SDS011;14546;47.590;19.022;2023-09-19T08:10:07;4.18;;;1.35;;
27003;SDS011;14546;47.590;19.022;2023-09-19T08:12:36;2.35;;;1.42;;
27003;SDS011;14546;47.590;19.022;2023-09-19T08:15:02;4.97;;;1.25;;
27003;SDS011;14546;47.590;19.022;2023-09-19T08:17:28;3.22;;;1.70;;
27003;SDS011;14546;47.590;19.022;2023-09-19T08:19:59;4.28;;;1.40;;
27003;SDS011;14546;47.590;19.022;2023-09-19T08:22:25;3.35;;;1.58;;
27003;SDS011;14546;47.590;19.022;2023-09-19T08:24:52;4.95;;;1.90;;
27003;SDS011;14546;47.590;19.022;2023-09-19T08:27:18;4.32;;;1.45;;
27003;SDS011;14546;47.590;19.022;2023-09-19T08:29:44;2.25;;;1.40;;
27003;SDS011;14546;47.590;19.022;2023-09-19T08:32:11;2.58;;;1.58;;
27003;SDS011;14546;47.590;19.022;2023-09-19T08:34:37;4.22;;;1.30;;
27003;SDS011;14546;47.590;19.022;2023-09-19T08:37:03;5.68;;;1.60;;
27003;SDS011;14546;47.590;19.022;2023-09-19T08:39:32;6.00;;;1.80;;
27003;SDS011;14546;47.590;19.022;2023-09-19T08:42:00;6.63;;;1.42;;
27003;SDS011;14546;47.590;19.022;2023-09-19T08:44:27;1.70;;;1.23;;
27003;SDS011;14546;47.590;19.022;2023-09-19T08:47:11;8.45;;;2.60;;
27003;SDS011;14546;47.590;19.022;2023-09-19T08:55:06;3.03;;;1.52;;
27003;SDS011;14546;47.590;19.022;2023-09-19T08:57:36;4.40;;;1.40;;
27003;SDS011;14546;47.590;19.022;2023-09-19T09:00:07;5.32;;;1.60;;
27003;SDS011;14546;47.590;19.022;2023-09-19T09:02:37;7.13;;;1.48;;
27003;SDS011;14546;47.590;19.022;2023-09-19T09:05:16;7.95;;;1.70;;
27003;SDS011;14546;47.590;19.022;2023-09-19T09:07:48;3.88;;;1.67;;
27003;SDS011;14546;47.590;19.022;2023-09-19T09:10:21;3.58;;;1.60;;
27003;SDS011;14546;47.590;19.022;2023-09-19T09:12:53;2.85;;;2.03;;
27003;SDS011;14546;47.590;19.022;2023-09-19T09:15:20;4.00;;;1.55;;
27003;SDS011;14546;47.590;19.022;2023-09-19T09:17:48;6.05;;;1.48;;
27003;SDS011;14546;47.590;19.022;2023-09-19T09:20:16;4.97;;;1.77;;
27003;SDS011;14546;47.590;19.022;2023-09-19T09:22:53;5.43;;;1.20;;
27003;SDS011;14546;47.590;19.022;2023-09-19T09:25:23;3.60;;;1.35;;
27003;SDS011;14546;47.590;19.022;2023-09-19T09:28:24;3.38;;;1.70;;
27003;SDS011;14546;47.590;19.022;2023-09-19T09:30:52;3.47;;;1.73;;
27003;SDS011;14546;47.590;19.022;2023-09-19T09:33:18;2.33;;;1.35;;
27003;SDS011;14546;47.590;19.022;2023-09-19T09:35:57;3.45;;;1.75;;
27003;SDS011;14546;47.590;19.022;2023-09-19T09:38:28;3.38;;;1.80;;
27003;SDS011;14546;47.590;19.022;2023-09-19T09:40:59;3.15;;;1.40;;
27003;SDS011;14546;47.590;19.022;2023-09-19T09:43:33;2.80;;;1.60;;
27003;SDS011;14546;47.590;19.022;2023-09-19T09:49:02;3.97;;;1.70;;
27003;SDS011;14546;47.590;19.022;2023-09-19T09:51:48;2.03;;;1.70;;
27003;SDS011;14546;47.590;19.022;2023-09-19T09:54:25;7.13;;;1.95;;
27003;SDS011;14546;47.590;19.022;2023-09-19T09:57:13;4.30;;;1.65;;
27003;SDS011;14546;47.590;19.022;2023-09-19T10:02:27;11.13;;;1.73;;
27003;SDS011;14546;47.590;19.022;2023-09-19T10:05:11;4.85;;;1.70;;
27003;SDS011;14546;47.590;19.022;2023-09-19T10:07:53;6.60;;;1.50;;
27003;SDS011;14546;47.590;19.022;2023-09-19T10:10:36;2.72;;;1.70;;
27003;SDS011;14546;47.590;19.022;2023-09-19T10:13:11;2.72;;;1.70;;
27003;SDS011;14546;47.590;19.022;2023-09-19T10:15:39;7.53;;;1.80;;
27003;SDS011;14546;47.590;19.022;2023-09-19T10:18:14;3.88;;;2.20;;
27003;SDS011;14546;47.590;19.022;2023-09-19T10:20:42;5.18;;;2.25;;
27003;SDS011;14546;47.590;19.022;2023-09-19T10:23:14;2.60;;;2.28;;
27003;SDS011;14546;47.590;19.022;2023-09-19T10:25:47;4.15;;;2.47;;
27003;SDS011;14546;47.590;19.022;2023-09-19T10:28:17;3.47;;;2.40;;
27003;SDS011;14546;47.590;19.022;2023-09-19T10:30:50;4.35;;;2.15;;
27003;SDS011;14546;47.590;19.022;2023-09-19T10:33:18;6.30;;;2.03;;
27003;SDS011;14546;47.590;19.022;2023-09-19T10:35:48;4.40;;;2.50;;
27003;SDS011;14546;47.590;19.022;2023-09-19T10:38:17;10.07;;;2.28;;
27003;SDS011;14546;47.590;19.022;2023-09-19T10:40:50;8.57;;;2.22;;
27003;SDS011;14546;47.590;19.022;2023-09-19T10:43:17;7.32;;;2.28;;
27003;SDS011;14546;47.590;19.022;2023-09-19T10:45:44;4.80;;;1.60;;
27003;SDS011;14546;47.590;19.022;2023-09-19T10:48:14;3.83;;;1.83;;
27003;SDS011;14546;47.590;19.022;2023-09-19T10:50:48;4.18;;;1.88;;
27003;SDS011;14546;47.590;19.022;2023-09-19T10:53:16;5.25;;;2.20;;
27003;SDS011;14546;47.590;19.022;2023-09-19T10:55:50;5.20;;;2.05;;
27003;SDS011;14546;47.590;19.022;2023-09-19T10:58:28;4.38;;;1.92;;
27003;SDS011;14546;47.590;19.022;2023-09-19T11:00:58;2.72;;;2.00;;
27003;SDS011;14546;47.590;19.022;2023-09-19T11:03:30;4.28;;;1.67;;
27003;SDS011;14546;47.590;19.022;2023-09-19T11:14:14;7.00;;;1.75;;
27003;SDS011;14546;47.590;19.022;2023-09-19T11:20:14;5.65;;;1.67;;
27003;SDS011;14546;47.590;19.022;2023-09-19T11:22:13;5.82;;;1.80;;
27003;SDS011;14546;47.590;19.022;2023-09-19T11:24:39;4.50;;;1.50;;
27003;SDS011;14546;47.590;19.022;2023-09-19T11:27:10;3.10;;;1.13;;
27003;SDS011;14546;47.590;19.022;2023-09-19T11:29:39;7.45;;;2.08;;
27003;SDS011;14546;47.590;19.022;2023-09-19T11:32:06;2.78;;;1.23;;
27003;SDS011;14546;47.590;19.022;2023-09-19T11:37:02;6.25;;;1.10;;
27003;SDS011;14546;47.590;19.022;2023-09-19T11:39:29;2.70;;;1.20;;
27003;SDS011;14546;47.590;19.022;2023-09-19T11:41:56;3.67;;;1.30;;
27003;SDS011;14546;47.590;19.022;2023-09-19T11:46:52;2.60;;;1.45;;
27003;SDS011;14546;47.590;19.022;2023-09-19T11:49:31;3.15;;;1.48;;
27003;SDS011;14546;47.590;19.022;2023-09-19T11:51:58;5.75;;;1.58;;
27003;SDS011;14546;47.590;19.022;2023-09-19T11:54:31;2.75;;;1.20;;
27003;SDS011;14546;47.590;19.022;2023-09-19T11:56:58;3.63;;;1.60;;
27003;SDS011;14546;47.590;19.022;2023-09-19T11:59:25;9.10;;;2.05;;
27003;SDS011;14546;47.590;19.022;2023-09-19T12:01:57;6.43;;;2.15;;
27003;SDS011;14546;47.590;19.022;2023-09-19T12:07:08;2.95;;;1.00;;
27003;SDS011;14546;47.590;19.022;2023-09-19T12:09:44;2.17;;;1.10;;
27003;SDS011;14546;47.590;19.022;2023-09-19T12:12:24;2.65;;;1.30;;
27003;SDS011;14546;47.590;19.022;2023-09-19T12:14:58;4.20;;;1.63;;
27003;SDS011;14546;47.590;19.022;2023-09-19T12:17:41;3.22;;;1.10;;
27003;SDS011;14546;47.590;19.022;2023-09-19T12:20:09;3.92;;;1.10;;
27003;SDS011;14546;47.590;19.022;2023-09-19T12:22:45;2.90;;;1.23;;
27003;SDS011;14546;47.590;19.022;2023-09-19T12:25:12;5.57;;;1.60;;
27003;SDS011;14546;47.590;19.022;2023-09-19T12:27:47;4.70;;;1.70;;
27003;SDS011;14546;47.590;19.022;2023-09-19T12:30:18;1.88;;;1.23;;
27003;SDS011;14546;47.590;19.022;2023-09-19T12:32:46;2.40;;;1.50;;
27003;SDS011;14546;47.590;19.022;2023-09-19T12:35:27;2.47;;;1.63;;
27003;SDS011;14546;47.590;19.022;2023-09-19T12:37:55;4.35;;;1.40;;
27003;SDS011;14546;47.590;19.022;2023-09-19T12:40:22;2.72;;;1.70;;
27003;SDS011;14546;47.590;19.022;2023-09-19T12:42:52;3.20;;;1.52;;
27003;SDS011;14546;47.590;19.022;2023-09-19T12:45:20;4.28;;;1.38;;
27003;SDS011;14546;47.590;19.022;2023-09-19T12:50:33;1.88;;;1.30;;
27003;SDS011;14546;47.590;19.022;2023-09-19T12:52:59;2.47;;;1.45;;
27003;SDS011;14546;47.590;19.022;2023-09-19T12:55:26;5.43;;;1.60;;
27003;SDS011;14546;47.590;19.022;2023-09-19T12:57:56;3.85;;;1.70;;
27003;SDS011;14546;47.590;19.022;2023-09-19T13:00:31;2.83;;;1.30;;
27003;SDS011;14546;47.590;19.022;2023-09-19T13:03:10;3.58;;;1.67;;
27003;SDS011;14546;47.590;19.022;2023-09-19T13:06:12;6.27;;;1.67;;
27003;SDS011;14546;47.590;19.022;2023-09-19T13:08:42;4.20;;;1.48;;
27003;SDS011;14546;47.590;19.022;2023-09-19T13:11:13;5.28;;;1.60;;
27003;SDS011;14546;47.590;19.022;2023-09-19T13:13:47;4.30;;;1.60;;
27003;SDS011;14546;47.590;19.022;2023-09-19T13:16:15;5.00;;;1.30;;
27003;SDS011;14546;47.590;19.022;2023-09-19T13:18:48;5.13;;;1.38;;
27003;SDS011;14546;47.590;19.022;2023-09-19T13:21:34;4.00;;;1.45;;
27003;SDS011;14546;47.590;19.022;2023-09-19T13:24:23;2.60;;;1.33;;
27003;SDS011;14546;47.590;19.022;2023-09-19T13:26:55;6.23;;;1.63;;
27003;SDS011;14546;47.590;19.022;2023-09-19T13:29:21;13.15;;;1.52;;
27003;SDS011;14546;47.590;19.022;2023-09-19T13:31:48;4.43;;;1.40;;
27003;SDS011;14546;47.590;19.022;2023-09-19T13:34:15;3.33;;;1.40;;
27003;SDS011;14546;47.590;19.022;2023-09-19T13:36:42;5.03;;;1.55;;
27003;SDS011;14546;47.590;19.022;2023-09-19T13:39:09;4.85;;;1.83;;
27003;SDS011;14546;47.590;19.022;2023-09-19T13:41:35;4.40;;;1.83;;
27003;SDS011;14546;47.590;19.022;2023-09-19T13:44:08;4.65;;;1.30;;
27003;SDS011;14546;47.590;19.022;2023-09-19T13:46:36;2.42;;;1.52;;
27003;SDS011;14546;47.590;19.022;2023-09-19T13:49:02;3.88;;;1.63;;
27003;SDS011;14546;47.590;19.022;2023-09-19T13:51:29;5.70;;;1.50;;
27003;SDS011;14546;47.590;19.022;2023-09-19T13:53:56;2.88;;;1.50;;
27003;SDS011;14546;47.590;19.022;2023-09-19T13:56:25;2.40;;;1.55;;
27003;SDS011;14546;47.590;19.022;2023-09-19T13:58:56;3.40;;;1.40;;
27003;SDS011;14546;47.590;19.022;2023-09-19T14:01:22;4.18;;;1.45;;
27003;SDS011;14546;47.590;19.022;2023-09-19T14:03:49;4.38;;;1.55;;
27003;SDS011;14546;47.590;19.022;2023-09-19T14:06:16;2.33;;;1.33;;
27003;SDS011;14546;47.590;19.022;2023-09-19T14:08:45;4.82;;;1.65;;
27003;SDS011;14546;47.590;19.022;2023-09-19T14:11:20;6.20;;;1.85;;
27003;SDS011;14546;47.590;19.022;2023-09-19T14:13:46;3.10;;;1.40;;
27003;SDS011;14546;47.590;19.022;2023-09-19T14:16:14;3.15;;;2.05;;
27003;SDS011;14546;47.590;19.022;2023-09-19T14:18:40;5.38;;;1.85;;
27003;SDS011;14546;47.590;19.022;2023-09-19T14:21:07;3.25;;;1.30;;
27003;SDS011;14546;47.590;19.022;2023-09-19T14:23:36;4.30;;;1.40;;
27003;SDS011;14546;47.590;19.022;2023-09-19T14:26:03;3.30;;;1.60;;
27003;SDS011;14546;47.590;19.022;2023-09-19T14:28:30;2.15;;;1.27;;
27003;SDS011;14546;47.590;19.022;2023-09-19T14:31:03;3.10;;;1.50;;
27003;SDS011;14546;47.590;19.022;2023-09-19T14:33:30;3.53;;;1.75;;
27003;SDS011;14546;47.590;19.022;2023-09-19T14:35:58;2.85;;;1.25;;
27003;SDS011;14546;47.590;19.022;2023-09-19T14:38:28;6.18;;;1.95;;
27003;SDS011;14546;47.590;19.022;2023-09-19T14:41:02;2.10;;;1.40;;
27003;SDS011;14546;47.590;19.022;2023-09-19T14:43:29;9.75;;;1.60;;
27003;SDS011;14546;47.590;19.022;2023-09-19T14:46:07;4.25;;;1.60;;
27003;SDS011;14546;47.590;19.022;2023-09-19T14:48:36;3.83;;;1.80;;
27003;SDS011;14546;47.590;19.022;2023-09-19T14:51:06;8.85;;;2.10;;
27003;SDS011;14546;47.590;19.022;2023-09-19T14:53:33;3.97;;;1.52;;
27003;SDS011;14546;47.590;19.022;2023-09-19T14:56:00;6.72;;;1.50;;
27003;SDS011;14546;47.590;19.022;2023-09-19T14:58:30;3.72;;;1.60;;
27003;SDS011;14546;47.590;19.022;2023-09-19T15:01:04;2.97;;;1.58;;
27003;SDS011;14546;47.590;19.022;2023-09-19T15:03:31;2.90;;;1.45;;
27003;SDS011;14546;47.590;19.022;2023-09-19T15:06:01;4.22;;;1.17;;
27003;SDS011;14546;47.590;19.022;2023-09-19T15:08:27;4.03;;;1.42;;
27003;SDS011;14546;47.590;19.022;2023-09-19T15:10:54;4.63;;;1.63;;
27003;SDS011;14546;47.590;19.022;2023-09-19T15:13:20;2.33;;;1.45;;
27003;SDS011;14546;47.590;19.022;2023-09-19T15:15:47;2.00;;;1.35;;
27003;SDS011;14546;47.590;19.022;2023-09-19T15:18:13;4.32;;;1.30;;
27003;SDS011;14546;47.590;19.022;2023-09-19T15:20:43;3.42;;;1.63;;
27003;SDS011;14546;47.590;19.022;2023-09-19T15:23:10;3.08;;;1.40;;
27003;SDS011;14546;47.590;19.022;2023-09-19T15:25:37;2.72;;;1.48;;
27003;SDS011;14546;47.590;19.022;2023-09-19T15:28:06;4.00;;;1.30;;
27003;SDS011;14546;47.590;19.022;2023-09-19T15:30:36;12.88;;;1.63;;
27003;SDS011;14546;47.590;19.022;2023-09-19T15:33:05;6.65;;;1.67;;